Time,TemperatureF,DewpointF,PressureIn,WindDirection,WindDirectionDegrees,WindSpeedMPH,WindSpeedGustMPH,Humidity,HourlyPrecipIn,Conditions,Clouds,dailyrainin,SolarRadiationWatts/m^2,SoftwareType,DateUTC
2013-09-15 00:03:00,59.0,47.7,29.95,SSW,193,0.0,6.0,66,0.00,,,0.00,0,Wunderground v.1.15,2013-09-15 05:03:00,
2013-09-15 00:10:00,58.8,46.6,29.95,SSW,194,0.0,6.0,64,0.00,,,0.00,0,Wunderground v.1.15,2013-09-15 05:10:00,
2013-09-15 00:16:00,58.6,46.9,29.95,SSW,208,0.0,6.0,65,0.00,,,0.00,0,Wunderground v.1.15,2013-09-15 05:16:00,
2013-09-15 00:22:00,58.4,47.1,29.95,SSW,196,0.0,6.0,66,0.00,,,0.00,0,Wunderground v.1.15,2013-09-15 05:22:00,
2013-09-15 00:28:00,58.4,47.1,29.95,SSW,198,0.0,6.0,66,0.00,,,0.00,0,Wunderground v.1.15,2013-09-15 05:28:00,
2013-09-15 00:33:00,58.2,46.9,29.95,SSW,194,0.0,6.0,66,0.00,,,0.00,0,Wunderground v.1.15,2013-09-15 05:33:00,
2013-09-15 00:40:00,58.2,46.9,29.95,SSW,194,0.0,6.0,66,0.00,,,0.00,0,Wunderground v.1.15,2013-09-15 05:40:00,
2013-09-15 00:45:00,58.2,46.9,29.95,SSW,194,0.0,6.0,66,0.00,,,0.00,0,Wunderground v.1.15,2013-09-15 05:45:00,
2013-09-15 00:52:00,58.2,46.9,29.95,SW,216,0.0,6.0,66,0.00,,,0.00,0,Wunderground v.1.15,2013-09-15 05:52:00,
2013-09-15 00:58:00,58.2,46.9,29.94,SW,215,0.0,6.0,66,0.00,,,0.00,0,Wunderground v.1.15,2013-09-15 05:58:00,
2013-09-15 01:04:00,58.2,46.9,29.94,SSW,203,0.0,6.0,66,0.00,,,0.00,0,Wunderground v.1.15,2013-09-15 06:04:00,
2013-09-15 01:10:00,58.1,46.8,29.94,SE,130,0.0,6.0,66,0.00,,,0.00,0,Wunderground v.1.15,2013-09-15 06:10:00,
2013-09-15 01:15:00,58.0,46.7,29.94,SSE,157,0.0,6.0,66,0.00,,,0.00,0,Wunderground v.1.15,2013-09-15 06:15:00,
2013-09-15 01:22:00,57.9,47.0,29.93,North,360,0.0,6.0,67,0.00,,,0.00,0,Wunderground v.1.15,2013-09-15 06:22:00,
2013-09-15 01:28:00,57.7,46.8,29.93,North,360,0.0,6.0,67,0.00,,,0.00,0,Wunderground v.1.15,2013-09-15 06:28:00,
2013-09-15 01:34:00,57.6,46.7,29.94,North,360,0.0,6.0,67,0.00,,,0.00,0,Wunderground v.1.15,2013-09-15 06:34:00,
2013-09-15 01:40:00,57.5,46.6,29.93,North,360,0.0,6.0,67,0.00,,,0.00,0,Wunderground v.1.15,2013-09-15 06:40:00,
2013-09-15 01:45:00,57.4,46.9,29.93,North,360,0.0,6.0,68,0.00,,,0.00,0,Wunderground v.1.15,2013-09-15 06:45:00,
2013-09-15 01:52:00,57.4,46.5,29.93,North,360,0.0,6.0,67,0.00,,,0.00,0,Wunderground v.1.15,2013-09-15 06:52:00,
2013-09-15 01:58:00,57.6,47.1,29.93,North,360,1.0,6.0,68,0.00,,,0.00,0,Wunderground v.1.15,2013-09-15 06:58:00,
2013-09-15 02:04:00,57.7,47.2,29.93,North,360,1.0,6.0,68,0.00,,,0.00,0,Wunderground v.1.15,2013-09-15 07:04:00,
2013-09-15 02:10:00,57.8,47.3,29.93,North,360,0.0,6.0,68,0.00,,,0.00,0,Wunderground v.1.15,2013-09-15 07:10:00,
2013-09-15 02:15:00,57.9,47.0,29.93,SSW,192,0.0,6.0,67,0.00,,,0.00,0,Wunderground v.1.15,2013-09-15 07:15:00,
2013-09-15 02:22:00,58.3,46.6,29.93,SSW,211,1.0,6.0,65,0.00,,,0.00,0,Wunderground v.1.15,2013-09-15 07:22:00,
2013-09-15 02:27:00,58.6,46.9,29.93,North,360,1.0,6.0,65,0.00,,,0.00,0,Wunderground v.1.15,2013-09-15 07:27:00,
2013-09-15 02:34:00,59.0,46.8,29.93,SSW,209,0.0,6.0,64,0.00,,,0.00,0,Wunderground v.1.15,2013-09-15 07:34:00,
2013-09-15 02:40:00,59.3,46.7,29.93,SSW,192,0.0,6.0,63,0.00,,,0.00,0,Wunderground v.1.15,2013-09-15 07:40:00,
2013-09-15 02:46:00,59.5,46.5,29.93,North,360,1.0,6.0,62,0.00,,,0.00,0,Wunderground v.1.15,2013-09-15 07:46:00,
2013-09-15 02:52:00,59.6,46.6,29.93,South,189,1.0,6.0,62,0.00,,,0.00,0,Wunderground v.1.15,2013-09-15 07:52:00,
2013-09-15 02:57:00,59.8,46.7,29.92,SSW,199,1.0,6.0,62,0.00,,,0.00,0,Wunderground v.1.15,2013-09-15 07:57:00,
2013-09-15 03:04:00,59.9,46.4,29.92,SSW,198,1.0,6.0,61,0.00,,,0.00,0,Wunderground v.1.15,2013-09-15 08:04:00,
2013-09-15 03:10:00,59.9,46.8,29.92,SSW,192,0.0,6.0,62,0.00,,,0.00,0,Wunderground v.1.15,2013-09-15 08:10:00,
2013-09-15 03:16:00,60.0,46.9,29.92,SSW,192,1.0,6.0,62,0.00,,,0.00,0,Wunderground v.1.15,2013-09-15 08:16:00,
2013-09-15 03:22:00,60.2,47.1,29.92,SSW,206,1.0,4.0,62,0.00,,,0.00,0,Wunderground v.1.15,2013-09-15 08:22:00,
2013-09-15 03:27:00,60.2,47.1,29.92,North,360,1.0,6.0,62,0.00,,,0.00,0,Wunderground v.1.15,2013-09-15 08:27:00,
2013-09-15 03:34:00,60.3,47.6,29.92,SW,229,1.0,6.0,63,0.00,,,0.00,0,Wunderground v.1.15,2013-09-15 08:34:00,
2013-09-15 03:40:00,60.2,47.6,29.92,South,178,0.0,6.0,63,0.00,,,0.00,0,Wunderground v.1.15,2013-09-15 08:40:00,
2013-09-15 03:46:00,60.2,47.6,29.92,South,179,0.0,6.0,63,0.00,,,0.00,0,Wunderground v.1.15,2013-09-15 08:46:00,
2013-09-15 03:52:00,60.2,48.0,29.92,North,360,0.0,6.0,64,0.00,,,0.00,0,Wunderground v.1.15,2013-09-15 08:52:00,
2013-09-15 03:58:00,60.1,47.9,29.92,North,360,0.0,6.0,64,0.00,,,0.00,0,Wunderground v.1.15,2013-09-15 08:58:00,
2013-09-15 04:04:00,60.1,47.9,29.92,North,360,0.0,6.0,64,0.00,,,0.00,0,Wunderground v.1.15,2013-09-15 09:04:00,
2013-09-15 04:10:00,60.1,47.9,29.92,SSW,192,0.0,6.0,64,0.00,,,0.00,0,Wunderground v.1.15,2013-09-15 09:10:00,
2013-09-15 04:16:00,60.2,47.6,29.93,South,170,0.0,6.0,63,0.00,,,0.00,0,Wunderground v.1.15,2013-09-15 09:16:00,
2013-09-15 04:22:00,60.2,48.4,29.92,SSW,196,0.0,6.0,65,0.00,,,0.00,0,Wunderground v.1.15,2013-09-15 09:22:00,
2013-09-15 04:27:00,60.2,48.4,29.93,SW,217,0.0,6.0,65,0.00,,,0.00,0,Wunderground v.1.15,2013-09-15 09:27:00,
2013-09-15 04:34:00,60.1,48.3,29.94,SSW,213,0.0,6.0,65,0.00,,,0.00,0,Wunderground v.1.15,2013-09-15 09:34:00,
2013-09-15 04:40:00,60.1,48.7,29.95,SSW,213,0.0,6.0,66,0.00,,,0.00,0,Wunderground v.1.15,2013-09-15 09:40:00,
2013-09-15 04:46:00,59.9,49.3,29.96,SSW,213,0.0,6.0,68,0.00,,,0.00,0,Wunderground v.1.15,2013-09-15 09:46:00,
2013-09-15 04:52:00,59.6,49.8,29.95,SSW,213,0.0,6.0,70,0.00,,,0.00,0,Wunderground v.1.15,2013-09-15 09:52:00,
2013-09-15 04:57:00,59.1,50.5,29.95,SSW,213,0.0,6.0,73,0.15,,,0.02,0,Wunderground v.1.15,2013-09-15 09:57:00,
2013-09-15 05:04:00,58.4,51.2,29.95,SSW,213,0.0,6.0,77,0.24,,,0.04,0,Wunderground v.1.15,2013-09-15 10:04:00,
2013-09-15 05:10:00,57.5,50.7,29.94,East,80,0.0,6.0,78,0.07,,,0.04,0,Wunderground v.1.15,2013-09-15 10:10:00,
2013-09-15 05:16:00,57.2,51.1,29.94,ENE,77,0.0,6.0,80,0.04,,,0.04,0,Wunderground v.1.15,2013-09-15 10:16:00,
2013-09-15 05:22:00,57.2,51.4,29.93,ENE,77,0.0,6.0,81,0.00,,,0.04,0,Wunderground v.1.15,2013-09-15 10:22:00,
2013-09-15 05:27:00,57.0,51.9,29.93,ENE,78,0.0,6.0,83,0.00,,,0.04,0,Wunderground v.1.15,2013-09-15 10:27:00,
2013-09-15 05:34:00,56.8,52.0,29.92,East,100,2.0,6.0,84,0.00,,,0.04,0,Wunderground v.1.15,2013-09-15 10:34:00,
2013-09-15 05:40:00,56.9,52.1,29.92,ESE,105,4.0,6.0,84,0.00,,,0.04,0,Wunderground v.1.15,2013-09-15 10:40:00,
2013-09-15 05:46:00,57.0,51.9,29.93,ESE,105,5.0,6.0,83,0.00,,,0.04,0,Wunderground v.1.15,2013-09-15 10:46:00,
2013-09-15 05:52:00,57.0,51.6,29.93,ESE,107,5.0,8.0,82,0.00,,,0.04,0,Wunderground v.1.15,2013-09-15 10:52:00,
2013-09-15 05:57:00,57.2,51.4,29.93,ESE,107,4.0,8.0,81,0.00,,,0.04,0,Wunderground v.1.15,2013-09-15 10:57:00,
2013-09-15 06:04:00,57.3,51.2,29.92,ESE,107,5.0,6.0,80,0.00,,,0.04,0,Wunderground v.1.15,2013-09-15 11:04:00,
2013-09-15 06:09:00,57.2,51.4,29.93,ESE,107,3.0,3.0,81,0.00,,,0.04,0,Wunderground v.1.15,2013-09-15 11:09:00,
2013-09-15 06:16:00,57.0,51.6,29.92,ESE,107,2.0,6.0,82,0.00,,,0.04,0,Wunderground v.1.15,2013-09-15 11:16:00,
2013-09-15 06:22:00,57.0,51.6,29.93,ESE,107,3.0,6.0,82,0.00,,,0.04,0,Wunderground v.1.15,2013-09-15 11:22:00,
2013-09-15 06:28:00,57.1,52.0,29.93,ESE,105,3.0,6.0,83,0.00,,,0.04,0,Wunderground v.1.15,2013-09-15 11:28:00,
2013-09-15 06:34:00,57.1,52.0,29.93,ESE,107,4.0,6.0,83,0.00,,,0.04,0,Wunderground v.1.15,2013-09-15 11:34:00,
2013-09-15 06:39:00,57.0,51.9,29.93,ESE,104,4.0,6.0,83,0.00,,,0.04,0,Wunderground v.1.15,2013-09-15 11:39:00,
2013-09-15 06:46:00,57.0,52.2,29.93,ESE,106,4.0,6.0,84,0.00,,,0.04,0,Wunderground v.1.15,2013-09-15 11:46:00,
2013-09-15 06:52:00,56.9,52.1,29.93,ESE,105,3.0,6.0,84,0.00,,,0.04,0,Wunderground v.1.15,2013-09-15 11:52:00,
2013-09-15 06:58:00,56.9,52.1,29.93,ESE,105,3.0,6.0,84,0.00,,,0.04,0,Wunderground v.1.15,2013-09-15 11:58:00,
2013-09-15 07:04:00,56.8,51.7,29.93,ESE,105,2.0,6.0,83,0.00,,,0.04,0,Wunderground v.1.15,2013-09-15 12:04:00,
2013-09-15 07:10:00,56.8,51.7,29.93,ESE,105,2.0,6.0,83,0.00,,,0.04,5,Wunderground v.1.15,2013-09-15 12:10:00,
2013-09-15 07:16:00,56.9,52.1,29.94,ESE,105,4.0,6.0,84,0.00,,,0.04,0,Wunderground v.1.15,2013-09-15 12:16:00,
2013-09-15 07:22:00,57.0,52.2,29.94,ESE,103,3.0,6.0,84,0.00,,,0.04,7,Wunderground v.1.15,2013-09-15 12:22:00,
2013-09-15 07:28:00,57.1,52.3,29.94,ESE,103,1.0,6.0,84,0.00,,,0.04,9,Wunderground v.1.15,2013-09-15 12:28:00,
2013-09-15 07:34:00,57.1,52.3,29.94,ESE,103,0.0,6.0,84,0.00,,,0.04,9,Wunderground v.1.15,2013-09-15 12:34:00,
2013-09-15 07:40:00,57.1,52.3,29.94,ESE,103,0.0,6.0,84,0.00,,,0.04,16,Wunderground v.1.15,2013-09-15 12:40:00,
2013-09-15 07:46:00,57.2,52.4,29.94,ESE,103,0.0,6.0,84,0.00,,,0.04,21,Wunderground v.1.15,2013-09-15 12:46:00,
2013-09-15 07:52:00,57.3,52.5,29.93,ESE,103,0.0,6.0,84,0.00,,,0.04,16,Wunderground v.1.15,2013-09-15 12:52:00,
2013-09-15 07:57:00,57.4,52.6,29.93,ESE,104,3.0,6.0,84,0.00,,,0.04,7,Wunderground v.1.15,2013-09-15 12:57:00,
2013-09-15 08:04:00,57.4,52.9,29.92,ESE,105,5.0,9.0,85,0.00,,,0.04,12,Wunderground v.1.15,2013-09-15 13:04:00,
2013-09-15 08:09:00,57.4,52.9,29.92,ESE,107,6.0,6.0,85,0.00,,,0.04,25,Wunderground v.1.15,2013-09-15 13:09:00,
2013-09-15 08:16:00,57.3,52.5,29.91,ESE,107,5.0,6.0,84,0.00,,,0.04,26,Wunderground v.1.15,2013-09-15 13:16:00,
2013-09-15 08:22:00,57.3,52.8,29.91,ESE,107,4.0,6.0,85,0.00,,,0.04,30,Wunderground v.1.15,2013-09-15 13:22:00,
2013-09-15 08:27:00,57.5,53.0,29.90,ESE,107,2.0,7.0,85,0.00,,,0.04,25,Wunderground v.1.15,2013-09-15 13:27:00,
2013-09-15 08:34:00,57.6,52.8,29.91,ESE,109,2.0,6.0,84,0.00,,,0.04,16,Wunderground v.1.15,2013-09-15 13:34:00,
2013-09-15 08:39:00,57.6,52.8,29.91,ESE,109,1.0,1.0,84,0.00,,,0.04,19,Wunderground v.1.15,2013-09-15 13:39:00,
2013-09-15 08:46:00,57.7,52.9,29.91,ESE,109,1.0,6.0,84,0.00,,,0.04,28,Wunderground v.1.15,2013-09-15 13:46:00,
2013-09-15 08:52:00,57.8,53.0,29.91,ESE,109,1.0,6.0,84,0.00,,,0.04,18,Wunderground v.1.15,2013-09-15 13:52:00,
2013-09-15 08:58:00,57.9,53.4,29.91,ESE,109,0.0,6.0,85,0.00,,,0.04,47,Wunderground v.1.15,2013-09-15 13:58:00,
2013-09-15 09:04:00,57.8,53.3,29.91,ESE,109,0.0,6.0,85,0.00,,,0.04,39,Wunderground v.1.15,2013-09-15 14:04:00,
2013-09-15 09:09:00,57.8,53.3,29.91,ESE,110,1.0,1.0,85,0.00,,,0.04,53,Wunderground v.1.15,2013-09-15 14:09:00,
2013-09-15 09:16:00,57.9,53.7,29.91,ESE,109,1.0,6.0,86,0.00,,,0.04,118,Wunderground v.1.15,2013-09-15 14:16:00,
2013-09-15 09:22:00,57.9,53.7,29.91,ESE,118,1.0,2.0,86,0.00,,,0.04,111,Wunderground v.1.15,2013-09-15 14:22:00,
2013-09-15 09:28:00,58.0,53.8,29.91,South,189,2.0,6.0,86,0.00,,,0.04,56,Wunderground v.1.15,2013-09-15 14:28:00,
2013-09-15 09:34:00,58.0,53.8,29.91,South,180,2.0,6.0,86,0.00,,,0.04,46,Wunderground v.1.15,2013-09-15 14:34:00,
2013-09-15 09:39:00,58.1,53.9,29.92,North,360,1.0,6.0,86,0.00,,,0.04,100,Wunderground v.1.15,2013-09-15 14:39:00,
2013-09-15 09:46:00,58.1,53.9,29.92,North,360,2.0,6.0,86,0.00,,,0.04,100,Wunderground v.1.15,2013-09-15 14:46:00,
2013-09-15 09:51:00,58.2,54.0,29.92,SW,230,2.0,6.0,86,0.00,,,0.04,90,Wunderground v.1.15,2013-09-15 14:51:00,
2013-09-15 09:58:00,58.2,54.0,29.92,North,360,2.0,6.0,86,0.00,,,0.04,62,Wunderground v.1.15,2013-09-15 14:58:00,
2013-09-15 10:04:00,57.9,54.1,29.92,SSW,203,1.0,6.0,87,0.00,,,0.04,65,Wunderground v.1.15,2013-09-15 15:04:00,
2013-09-15 10:09:00,57.8,54.3,29.91,North,360,1.0,1.0,88,0.00,,,0.04,56,Wunderground v.1.15,2013-09-15 15:09:00,
2013-09-15 10:16:00,57.8,54.3,29.92,SSW,211,0.0,6.0,88,0.00,,,0.04,58,Wunderground v.1.15,2013-09-15 15:16:00,
2013-09-15 10:22:00,57.7,54.5,29.92,SSW,192,0.0,6.0,89,0.00,,,0.05,56,Wunderground v.1.15,2013-09-15 15:22:00,
2013-09-15 10:28:00,57.6,54.7,29.92,North,360,0.0,6.0,90,0.00,,,0.05,51,Wunderground v.1.15,2013-09-15 15:28:00,
2013-09-15 10:34:00,57.5,54.9,29.91,SSW,192,0.0,6.0,91,0.00,,,0.05,113,Wunderground v.1.15,2013-09-15 15:34:00,
2013-09-15 10:40:00,57.5,54.9,29.91,North,360,0.0,6.0,91,0.00,,,0.05,123,Wunderground v.1.15,2013-09-15 15:40:00,
2013-09-15 10:46:00,57.6,55.3,29.91,SSW,201,0.0,6.0,92,0.00,,,0.05,134,Wunderground v.1.15,2013-09-15 15:46:00,
2013-09-15 10:52:00,57.8,55.5,29.91,South,184,1.0,6.0,92,0.00,,,0.05,114,Wunderground v.1.15,2013-09-15 15:52:00,
2013-09-15 10:58:00,57.9,55.6,29.92,SSE,166,0.0,6.0,92,0.00,,,0.05,81,Wunderground v.1.15,2013-09-15 15:58:00,
2013-09-15 11:04:00,58.0,55.7,29.92,SSW,195,0.0,6.0,92,0.00,,,0.05,91,Wunderground v.1.15,2013-09-15 16:04:00,
2013-09-15 11:09:00,58.1,55.8,29.92,SSW,213,0.0,6.0,92,0.00,,,0.05,62,Wunderground v.1.15,2013-09-15 16:09:00,
2013-09-15 11:16:00,58.3,56.0,29.92,SSW,202,0.0,6.0,92,0.00,,,0.05,77,Wunderground v.1.15,2013-09-15 16:16:00,
2013-09-15 11:22:00,58.4,56.1,29.92,SSW,192,1.0,6.0,92,0.00,,,0.05,104,Wunderground v.1.15,2013-09-15 16:22:00,
2013-09-15 11:28:00,58.6,56.6,29.92,SSW,193,0.0,6.0,93,0.00,,,0.05,100,Wunderground v.1.15,2013-09-15 16:28:00,
2013-09-15 11:34:00,58.8,56.5,29.92,SSW,192,0.0,6.0,92,0.00,,,0.05,93,Wunderground v.1.15,2013-09-15 16:34:00,
2013-09-15 11:39:00,59.0,56.7,29.92,SSW,193,0.0,6.0,92,0.00,,,0.05,95,Wunderground v.1.15,2013-09-15 16:39:00,
2013-09-15 11:46:00,59.1,56.8,29.92,North,360,0.0,6.0,92,0.00,,,0.05,107,Wunderground v.1.15,2013-09-15 16:46:00,
2013-09-15 11:52:00,59.2,56.6,29.92,SSW,205,0.0,6.0,91,0.00,,,0.05,62,Wunderground v.1.15,2013-09-15 16:52:00,
2013-09-15 11:58:00,59.4,56.8,29.92,SSW,194,0.0,6.0,91,0.00,,,0.05,51,Wunderground v.1.15,2013-09-15 16:58:00,
2013-09-15 12:04:00,59.5,56.9,29.92,North,360,0.0,6.0,91,0.00,,,0.05,63,Wunderground v.1.15,2013-09-15 17:04:00,
2013-09-15 12:10:00,59.5,56.9,29.92,SSW,202,0.0,6.0,91,0.00,,,0.05,144,Wunderground v.1.15,2013-09-15 17:10:00,
2013-09-15 12:16:00,59.8,57.5,29.92,South,171,0.0,6.0,92,0.00,,,0.05,211,Wunderground v.1.15,2013-09-15 17:16:00,
2013-09-15 12:22:00,60.2,57.9,29.91,South,175,0.0,6.0,92,0.00,,,0.05,179,Wunderground v.1.15,2013-09-15 17:22:00,
2013-09-15 12:28:00,60.5,57.6,29.91,SW,216,0.0,6.0,90,0.00,,,0.05,144,Wunderground v.1.15,2013-09-15 17:28:00,
2013-09-15 12:34:00,60.9,57.9,29.92,SSW,209,0.0,6.0,90,0.00,,,0.05,207,Wunderground v.1.15,2013-09-15 17:34:00,
2013-09-15 12:40:00,61.3,58.3,29.91,SSW,211,1.0,6.0,90,0.00,,,0.05,322,Wunderground v.1.15,2013-09-15 17:40:00,
2013-09-15 12:46:00,61.9,58.9,29.91,SW,220,1.0,9.0,90,0.00,,,0.05,313,Wunderground v.1.15,2013-09-15 17:46:00,
2013-09-15 12:52:00,62.7,59.1,29.91,WSW,246,1.0,6.0,88,0.00,,,0.05,292,Wunderground v.1.15,2013-09-15 17:52:00,
2013-09-15 12:57:00,63.2,59.3,29.91,South,191,1.0,6.0,87,0.00,,,0.05,304,Wunderground v.1.15,2013-09-15 17:57:00,
2013-09-15 13:04:00,63.7,59.1,29.91,South,182,2.0,6.0,85,0.00,,,0.05,116,Wunderground v.1.15,2013-09-15 18:04:00,
2013-09-15 13:10:00,63.9,58.6,29.92,SW,226,3.0,3.0,83,0.00,,,0.05,79,Wunderground v.1.15,2013-09-15 18:10:00,
2013-09-15 13:16:00,63.9,58.6,29.91,SSW,198,2.0,6.0,83,0.00,,,0.05,102,Wunderground v.1.15,2013-09-15 18:16:00,
2013-09-15 13:22:00,63.9,58.6,29.92,WSW,244,1.0,6.0,83,0.00,,,0.05,90,Wunderground v.1.15,2013-09-15 18:22:00,
2013-09-15 13:27:00,63.9,58.6,29.91,SSW,213,2.0,6.0,83,0.00,,,0.05,77,Wunderground v.1.15,2013-09-15 18:27:00,
2013-09-15 13:34:00,64.0,58.7,29.92,SW,231,1.0,6.0,83,0.00,,,0.05,127,Wunderground v.1.15,2013-09-15 18:34:00,
2013-09-15 13:40:00,64.1,58.8,29.92,SW,234,1.0,1.0,83,0.00,,,0.05,79,Wunderground v.1.15,2013-09-15 18:40:00,
2013-09-15 13:46:00,64.3,59.0,29.92,WSW,254,1.0,6.0,83,0.00,,,0.05,49,Wunderground v.1.15,2013-09-15 18:46:00,
2013-09-15 13:52:00,64.3,59.0,29.92,WSW,254,1.0,6.0,83,0.00,,,0.05,62,Wunderground v.1.15,2013-09-15 18:52:00,
2013-09-15 13:57:00,64.4,59.5,29.92,SW,231,1.0,6.0,84,0.00,,,0.05,47,Wunderground v.1.15,2013-09-15 18:57:00,
2013-09-15 14:04:00,64.5,59.2,29.93,WSW,247,1.0,6.0,83,0.00,,,0.05,65,Wunderground v.1.15,2013-09-15 19:04:00,
2013-09-15 14:10:00,64.5,59.2,29.93,West,263,1.0,6.0,83,0.00,,,0.05,63,Wunderground v.1.15,2013-09-15 19:10:00,
2013-09-15 14:16:00,64.6,59.3,29.92,West,270,1.0,6.0,83,0.00,,,0.05,74,Wunderground v.1.15,2013-09-15 19:16:00,
2013-09-15 14:22:00,64.7,59.4,29.93,West,275,0.0,6.0,83,0.00,,,0.05,67,Wunderground v.1.15,2013-09-15 19:22:00,
2013-09-15 14:27:00,64.8,59.9,29.93,West,262,1.0,6.0,84,0.00,,,0.05,51,Wunderground v.1.15,2013-09-15 19:27:00,
2013-09-15 14:34:00,64.8,59.9,29.93,WSW,244,2.0,6.0,84,0.00,,,0.05,77,Wunderground v.1.15,2013-09-15 19:34:00,
2013-09-15 14:39:00,64.8,60.2,29.93,WSW,250,2.0,2.0,85,0.00,,,0.05,88,Wunderground v.1.15,2013-09-15 19:39:00,
2013-09-15 14:46:00,64.7,60.1,29.92,WSW,258,0.0,6.0,85,0.00,,,0.05,116,Wunderground v.1.15,2013-09-15 19:46:00,
2013-09-15 14:52:00,64.7,60.4,29.93,West,265,1.0,6.0,86,0.00,,,0.05,125,Wunderground v.1.15,2013-09-15 19:52:00,
2013-09-15 14:58:00,64.6,60.3,29.93,West,277,2.0,6.0,86,0.00,,,0.06,77,Wunderground v.1.15,2013-09-15 19:58:00,
2013-09-15 15:04:00,64.3,60.3,29.93,West,279,2.0,6.0,87,0.00,,,0.06,104,Wunderground v.1.15,2013-09-15 20:04:00,
2013-09-15 15:09:00,64.1,60.8,29.94,WNW,286,0.0,6.0,89,0.00,,,0.06,56,Wunderground v.1.15,2013-09-15 20:09:00,
2013-09-15 15:16:00,63.8,60.8,29.94,WNW,290,1.0,6.0,90,0.00,,,0.06,30,Wunderground v.1.15,2013-09-15 20:16:00,
2013-09-15 15:22:00,63.5,60.8,29.94,WNW,300,1.0,6.0,91,0.00,,,0.07,60,Wunderground v.1.15,2013-09-15 20:22:00,
2013-09-15 15:28:00,63.3,60.6,29.94,NW,321,0.0,6.0,91,0.07,,,0.08,65,Wunderground v.1.15,2013-09-15 20:28:00,
2013-09-15 15:34:00,63.0,60.6,29.94,NW,319,0.0,6.0,92,0.15,,,0.09,60,Wunderground v.1.15,2013-09-15 20:34:00,
2013-09-15 15:39:00,62.8,60.4,29.94,NW,319,0.0,6.0,92,0.09,,,0.10,69,Wunderground v.1.15,2013-09-15 20:39:00,
2013-09-15 15:46:00,62.5,60.4,29.94,NNW,328,0.0,6.0,93,0.09,,,0.11,76,Wunderground v.1.15,2013-09-15 20:46:00,
2013-09-15 15:52:00,62.4,60.7,29.94,NNW,328,1.0,6.0,94,0.07,,,0.11,51,Wunderground v.1.15,2013-09-15 20:52:00,
2013-09-15 15:58:00,62.3,60.6,29.95,NNW,328,0.0,6.0,94,0.04,,,0.11,37,Wunderground v.1.15,2013-09-15 20:58:00,
2013-09-15 16:04:00,62.1,60.4,29.95,NNW,327,1.0,6.0,94,0.12,,,0.13,83,Wunderground v.1.15,2013-09-15 21:04:00,
2013-09-15 16:09:00,62.0,60.3,29.96,NW,313,1.0,1.0,94,0.08,,,0.13,16,Wunderground v.1.15,2013-09-15 21:09:00,
2013-09-15 16:16:00,61.8,60.1,29.96,WNW,302,1.0,6.0,94,0.05,,,0.13,30,Wunderground v.1.15,2013-09-15 21:16:00,
2013-09-15 16:22:00,61.7,60.0,29.96,NW,319,2.0,3.0,94,0.00,,,0.13,26,Wunderground v.1.15,2013-09-15 21:22:00,
2013-09-15 16:28:00,61.5,59.8,29.97,NW,321,3.0,7.0,94,0.00,,,0.13,18,Wunderground v.1.15,2013-09-15 21:28:00,
2013-09-15 16:34:00,61.3,59.6,29.97,NNW,336,3.0,6.0,94,0.00,,,0.13,28,Wunderground v.1.15,2013-09-15 21:34:00,
2013-09-15 16:40:00,61.3,59.6,29.97,NW,323,1.0,6.0,94,0.00,,,0.13,40,Wunderground v.1.15,2013-09-15 21:40:00,
2013-09-15 16:46:00,61.3,59.6,29.97,NNW,334,2.0,6.0,94,0.00,,,0.13,39,Wunderground v.1.15,2013-09-15 21:46:00,
2013-09-15 16:52:00,61.2,59.5,29.98,North,355,3.0,6.0,94,0.00,,,0.13,51,Wunderground v.1.15,2013-09-15 21:52:00,
2013-09-15 16:58:00,61.1,59.4,29.98,NW,321,4.0,6.0,94,0.00,,,0.13,44,Wunderground v.1.15,2013-09-15 21:58:00,
2013-09-15 17:04:00,61.0,59.3,29.98,South,186,4.0,6.0,94,0.00,,,0.13,23,Wunderground v.1.15,2013-09-15 22:04:00,
2013-09-15 17:09:00,60.9,59.2,29.98,North,9,6.0,6.0,94,0.00,,,0.13,25,Wunderground v.1.15,2013-09-15 22:09:00,
2013-09-15 17:16:00,60.8,59.1,29.99,West,264,5.0,11.0,94,0.00,,,0.13,18,Wunderground v.1.15,2013-09-15 22:16:00,
2013-09-15 17:22:00,60.6,58.6,30.00,North,349,6.0,6.0,93,0.00,,,0.13,23,Wunderground v.1.15,2013-09-15 22:22:00,
2013-09-15 17:28:00,60.5,58.5,30.00,SSW,213,6.0,8.0,93,0.00,,,0.13,44,Wunderground v.1.15,2013-09-15 22:28:00,
2013-09-15 17:34:00,60.5,58.5,30.00,North,9,5.0,6.0,93,0.00,,,0.13,67,Wunderground v.1.15,2013-09-15 22:34:00,
2013-09-15 17:39:00,60.5,58.5,30.00,North,5,4.0,6.0,93,0.00,,,0.13,40,Wunderground v.1.15,2013-09-15 22:39:00,
2013-09-15 17:46:00,60.5,58.5,30.00,NNW,338,4.0,6.0,93,0.00,,,0.13,40,Wunderground v.1.15,2013-09-15 22:46:00,
2013-09-15 17:52:00,60.6,58.6,30.00,NNE,24,4.0,6.0,93,0.00,,,0.13,67,Wunderground v.1.15,2013-09-15 22:52:00,
2013-09-15 17:58:00,60.6,58.6,30.01,North,5,4.0,6.0,93,0.00,,,0.13,42,Wunderground v.1.15,2013-09-15 22:58:00,
2013-09-15 18:04:00,60.6,58.6,30.01,NNW,337,3.0,6.0,93,0.00,,,0.13,35,Wunderground v.1.15,2013-09-15 23:04:00,
2013-09-15 18:09:00,60.6,58.6,30.01,North,355,2.0,6.0,93,0.00,,,0.13,37,Wunderground v.1.15,2013-09-15 23:09:00,
2013-09-15 18:16:00,60.6,58.6,30.02,North,350,3.0,6.0,93,0.00,,,0.13,56,Wunderground v.1.15,2013-09-15 23:16:00,
2013-09-15 18:21:00,60.6,58.6,30.02,NNE,14,2.0,6.0,93,0.00,,,0.13,28,Wunderground v.1.15,2013-09-15 23:21:00,
2013-09-15 18:28:00,60.6,58.6,30.02,North,355,2.0,6.0,93,0.00,,,0.13,23,Wunderground v.1.15,2013-09-15 23:28:00,
2013-09-15 18:34:00,60.6,58.6,30.03,North,11,2.0,6.0,93,0.00,,,0.13,21,Wunderground v.1.15,2013-09-15 23:34:00,
2013-09-15 18:39:00,60.6,58.6,30.03,NNW,331,3.0,6.0,93,0.00,,,0.13,11,Wunderground v.1.15,2013-09-15 23:39:00,
2013-09-15 18:46:00,60.6,58.6,30.03,NNW,341,3.0,6.0,93,0.00,,,0.13,0,Wunderground v.1.15,2013-09-15 23:46:00,
2013-09-15 18:51:00,60.5,58.5,30.03,North,9,2.0,6.0,93,0.00,,,0.13,0,Wunderground v.1.15,2013-09-15 23:51:00,
2013-09-15 18:58:00,60.5,58.5,30.04,North,9,2.0,6.0,93,0.00,,,0.13,0,Wunderground v.1.15,2013-09-15 23:58:00,
2013-09-15 19:04:00,60.3,58.3,30.04,NE,38,3.0,6.0,93,0.00,,,0.13,0,Wunderground v.1.15,2013-09-16 00:04:00,
2013-09-15 19:10:00,60.1,57.8,30.04,North,9,4.0,6.0,92,0.00,,,0.13,0,Wunderground v.1.15,2013-09-16 00:10:00,
2013-09-15 19:16:00,60.0,57.7,30.04,NNW,344,5.0,6.0,92,0.00,,,0.13,0,Wunderground v.1.15,2013-09-16 00:16:00,
2013-09-15 19:22:00,59.9,57.3,30.04,NNW,346,5.0,6.0,91,0.00,,,0.13,0,Wunderground v.1.15,2013-09-16 00:22:00,
2013-09-15 19:28:00,59.9,57.6,30.05,East,99,4.0,6.0,92,0.00,,,0.13,0,Wunderground v.1.15,2013-09-16 00:28:00,
2013-09-15 19:34:00,59.8,57.5,30.05,NNW,332,4.0,6.0,92,0.00,,,0.13,0,Wunderground v.1.15,2013-09-16 00:34:00,
2013-09-15 19:40:00,59.7,57.4,30.06,NNE,25,5.0,6.0,92,0.00,,,0.13,0,Wunderground v.1.15,2013-09-16 00:40:00,
2013-09-15 19:46:00,59.7,57.4,30.06,North,5,5.0,7.0,92,0.00,,,0.13,0,Wunderground v.1.15,2013-09-16 00:46:00,
2013-09-15 19:52:00,59.6,57.0,30.06,North,5,5.0,6.0,91,0.00,,,0.13,0,Wunderground v.1.15,2013-09-16 00:52:00,
2013-09-15 19:58:00,59.6,57.0,30.07,NNW,342,5.0,6.0,91,0.00,,,0.13,0,Wunderground v.1.15,2013-09-16 00:58:00,
2013-09-15 20:04:00,59.6,57.0,30.07,NNE,14,5.0,6.0,91,0.00,,,0.13,0,Wunderground v.1.15,2013-09-16 01:04:00,
2013-09-15 20:10:00,59.6,57.0,30.07,South,169,4.0,4.0,91,0.00,,,0.13,0,Wunderground v.1.15,2013-09-16 01:10:00,
2013-09-15 20:15:00,59.6,57.0,30.07,North,9,4.0,6.0,91,0.00,,,0.13,0,Wunderground v.1.15,2013-09-16 01:15:00,
2013-09-15 20:22:00,59.6,57.0,30.07,NNE,28,4.0,6.0,91,0.00,,,0.13,0,Wunderground v.1.15,2013-09-16 01:22:00,
2013-09-15 20:28:00,59.5,56.9,30.08,NNW,342,4.0,6.0,91,0.00,,,0.13,0,Wunderground v.1.15,2013-09-16 01:28:00,
2013-09-15 20:34:00,59.5,56.9,30.08,NNE,21,3.0,6.0,91,0.00,,,0.13,0,Wunderground v.1.15,2013-09-16 01:34:00,
2013-09-15 20:40:00,59.4,56.8,30.08,NNE,28,4.0,4.0,91,0.00,,,0.13,0,Wunderground v.1.15,2013-09-16 01:40:00,
2013-09-15 20:46:00,59.4,56.8,30.08,NE,34,4.0,6.0,91,0.00,,,0.13,0,Wunderground v.1.15,2013-09-16 01:46:00,
2013-09-15 20:52:00,59.4,56.5,30.08,NNE,15,4.0,6.0,90,0.00,,,0.13,0,Wunderground v.1.15,2013-09-16 01:52:00,
2013-09-15 20:58:00,59.4,56.5,30.09,NNE,13,4.0,6.0,90,0.00,,,0.13,0,Wunderground v.1.15,2013-09-16 01:58:00,
2013-09-15 21:04:00,59.4,56.5,30.09,NNE,22,4.0,6.0,90,0.00,,,0.13,0,Wunderground v.1.15,2013-09-16 02:04:00,
2013-09-15 21:09:00,59.4,56.8,30.09,North,5,4.0,6.0,91,0.00,,,0.13,0,Wunderground v.1.15,2013-09-16 02:09:00,
2013-09-15 21:16:00,59.3,56.7,30.09,North,5,4.0,6.0,91,0.00,,,0.13,0,Wunderground v.1.15,2013-09-16 02:16:00,
2013-09-15 21:22:00,59.3,56.7,30.10,North,9,4.0,11.0,91,0.00,,,0.13,0,Wunderground v.1.15,2013-09-16 02:22:00,
2013-09-15 21:28:00,59.3,56.7,30.10,NNW,346,5.0,11.0,91,0.00,,,0.13,0,Wunderground v.1.15,2013-09-16 02:28:00,
2013-09-15 21:34:00,59.3,56.4,30.10,NNE,26,5.0,10.0,90,0.00,,,0.13,0,Wunderground v.1.15,2013-09-16 02:34:00,
2013-09-15 21:39:00,59.3,56.1,30.11,NNE,17,7.0,7.0,89,0.00,,,0.13,0,Wunderground v.1.15,2013-09-16 02:39:00,
2013-09-15 21:46:00,59.3,55.7,30.10,NNE,12,6.0,7.0,88,0.00,,,0.13,0,Wunderground v.1.15,2013-09-16 02:46:00,
2013-09-15 21:52:00,59.3,55.4,30.10,North,5,6.0,7.0,87,0.00,,,0.13,0,Wunderground v.1.15,2013-09-16 02:52:00,
2013-09-15 21:58:00,59.3,55.4,30.11,North,9,6.0,10.0,87,0.00,,,0.13,0,Wunderground v.1.15,2013-09-16 02:58:00,
2013-09-15 22:04:00,59.1,55.5,30.11,North,355,5.0,6.0,88,0.00,,,0.13,0,Wunderground v.1.15,2013-09-16 03:04:00,
2013-09-15 22:09:00,58.8,55.3,30.11,NNE,19,4.0,6.0,88,0.00,,,0.13,0,Wunderground v.1.15,2013-09-16 03:09:00,
2013-09-15 22:16:00,58.4,54.9,30.12,North,355,4.0,6.0,88,0.00,,,0.13,0,Wunderground v.1.15,2013-09-16 03:16:00,
2013-09-15 22:22:00,58.1,54.9,30.12,NNE,29,2.0,4.0,89,0.00,,,0.13,0,Wunderground v.1.15,2013-09-16 03:22:00,
2013-09-15 22:28:00,57.8,54.6,30.12,NNE,15,1.0,6.0,89,0.00,,,0.13,0,Wunderground v.1.15,2013-09-16 03:28:00,
2013-09-15 22:34:00,57.5,54.6,30.12,North,5,2.0,6.0,90,0.00,,,0.13,0,Wunderground v.1.15,2013-09-16 03:34:00,
2013-09-15 22:39:00,57.3,54.4,30.12,NNE,17,3.0,3.0,90,0.00,,,0.13,0,Wunderground v.1.15,2013-09-16 03:39:00,
2013-09-15 22:46:00,57.0,54.1,30.12,NNE,20,3.0,6.0,90,0.00,,,0.13,0,Wunderground v.1.15,2013-09-16 03:46:00,
2013-09-15 22:51:00,56.8,54.2,30.12,NNE,19,3.0,6.0,91,0.00,,,0.13,0,Wunderground v.1.15,2013-09-16 03:51:00,
2013-09-15 22:58:00,56.6,54.0,30.13,North,5,4.0,6.0,91,0.00,,,0.13,0,Wunderground v.1.15,2013-09-16 03:58:00,
2013-09-15 23:02:00,56.6,54.3,30.13,NNE,15,4.0,7.0,92,0.00,,,0.13,0,Wunderground v.1.15,2013-09-16 04:02:00,
2013-09-15 23:05:00,56.5,54.2,30.13,North,5,4.0,7.0,92,0.00,,,0.13,0,Wunderground v.1.15,2013-09-16 04:05:00,
2013-09-15 23:10:00,56.4,54.1,30.12,North,350,3.0,6.0,92,0.00,,,0.13,0,Wunderground v.1.15,2013-09-16 04:10:00,
2013-09-15 23:12:00,56.4,54.1,30.13,North,5,3.0,6.0,92,0.00,,,0.13,0,Wunderground v.1.15,2013-09-16 04:12:00,
2013-09-15 23:18:00,56.2,53.9,30.13,NNE,13,2.0,6.0,92,0.00,,,0.13,0,Wunderground v.1.15,2013-09-16 04:18:00,
2013-09-15 23:21:00,56.0,53.7,30.13,NNE,13,1.0,6.0,92,0.00,,,0.13,0,Wunderground v.1.15,2013-09-16 04:21:00,
2013-09-15 23:28:00,55.9,53.6,30.13,NNE,13,1.0,6.0,92,0.00,,,0.13,0,Wunderground v.1.15,2013-09-16 04:28:00,
2013-09-15 23:34:00,55.8,53.5,30.13,NNE,15,3.0,6.0,92,0.00,,,0.13,0,Wunderground v.1.15,2013-09-16 04:34:00,
2013-09-15 23:40:00,55.7,53.4,30.13,North,355,3.0,6.0,92,0.00,,,0.13,0,Wunderground v.1.15,2013-09-16 04:40:00,
2013-09-15 23:46:00,55.5,53.5,30.14,NNW,334,3.0,6.0,93,0.00,,,0.13,0,Wunderground v.1.15,2013-09-16 04:46:00,
2013-09-15 23:51:00,55.5,53.5,30.14,NNW,329,3.0,4.0,93,0.00,,,0.13,0,Wunderground v.1.15,2013-09-16 04:51:00,
2013-09-15 23:58:00,55.4,53.4,30.14,NNW,332,3.0,6.0,93,0.00,,,0.13,0,Wunderground v.1.15,2013-09-16 04:58:00,